sensor_id;sensor_type;location;lat;lon;timestamp;temperature;humidity
14517;DHT22;7344;50.864;4.362;2023-11-21T00:02:15;11.00;99.90
14517;DHT22;7344;50.864;4.362;2023-11-21T00:04:40;10.90;99.90
14517;DHT22;7344;50.864;4.362;2023-11-21T00:07:06;10.90;99.90
14517;DHT22;7344;50.864;4.362;2023-11-21T00:09:32;10.80;99.90
14517;DHT22;7344;50.864;4.362;2023-11-21T00:11:58;10.80;99.90
14517;DHT22;7344;50.864;4.362;2023-11-21T00:14:25;10.80;99.90
14517;DHT22;7344;50.864;4.362;2023-11-21T00:16:50;10.70;99.90
14517;DHT22;7344;50.864;4.362;2023-11-21T00:19:16;10.70;99.90
14517;DHT22;7344;50.864;4.362;2023-11-21T00:21:42;10.70;99.90
14517;DHT22;7344;50.864;4.362;2023-11-21T00:24:10;10.60;99.90
14517;DHT22;7344;50.864;4.362;2023-11-21T00:26:35;10.60;99.90
14517;DHT22;7344;50.864;4.362;2023-11-21T00:29:03;10.60;99.90
14517;DHT22;7344;50.864;4.362;2023-11-21T00:31:29;10.50;99.90
14517;DHT22;7344;50.864;4.362;2023-11-21T00:33:56;10.40;99.90
14517;DHT22;7344;50.864;4.362;2023-11-21T00:36:21;10.40;99.90
14517;DHT22;7344;50.864;4.362;2023-11-21T00:38:47;10.40;99.90
14517;DHT22;7344;50.864;4.362;2023-11-21T00:41:14;10.30;99.90
14517;DHT22;7344;50.864;4.362;2023-11-21T00:43:39;10.30;99.90
14517;DHT22;7344;50.864;4.362;2023-11-21T00:46:06;10.30;99.90
14517;DHT22;7344;50.864;4.362;2023-11-21T00:48:34;10.30;99.90
14517;DHT22;7344;50.864;4.362;2023-11-21T00:51:00;10.30;99.90
14517;DHT22;7344;50.864;4.362;2023-11-21T00:53:26;10.20;99.90
14517;DHT22;7344;50.864;4.362;2023-11-21T00:55:52;10.20;99.90
14517;DHT22;7344;50.864;4.362;2023-11-21T00:58:23;10.10;99.90
14517;DHT22;7344;50.864;4.362;2023-11-21T01:00:48;10.10;99.90
14517;DHT22;7344;50.864;4.362;2023-11-21T01:03:14;10.20;99.90
14517;DHT22;7344;50.864;4.362;2023-11-21T01:05:40;10.20;99.90
14517;DHT22;7344;50.864;4.362;2023-11-21T01:08:05;10.30;99.90
14517;DHT22;7344;50.864;4.362;2023-11-21T01:10:31;10.30;99.90
14517;DHT22;7344;50.864;4.362;2023-11-21T01:12:57;10.10;99.90
14517;DHT22;7344;50.864;4.362;2023-11-21T01:15:24;10.10;99.90
14517;DHT22;7344;50.864;4.362;2023-11-21T01:17:51;10.10;99.90
14517;DHT22;7344;50.864;4.362;2023-11-21T01:20:17;10.20;99.90
14517;DHT22;7344;50.864;4.362;2023-11-21T01:22:43;10.20;99.90
14517;DHT22;7344;50.864;4.362;2023-11-21T01:25:09;10.30;99.90
14517;DHT22;7344;50.864;4.362;2023-11-21T01:27:36;10.30;99.90
14517;DHT22;7344;50.864;4.362;2023-11-21T01:30:03;10.30;99.90
14517;DHT22;7344;50.864;4.362;2023-11-21T01:32:29;10.30;99.90
14517;DHT22;7344;50.864;4.362;2023-11-21T01:34:55;10.40;99.90
14517;DHT22;7344;50.864;4.362;2023-11-21T01:37:21;10.50;99.90
14517;DHT22;7344;50.864;4.362;2023-11-21T01:39:47;10.60;99.90
14517;DHT22;7344;50.864;4.362;2023-11-21T01:42:13;10.60;99.90
14517;DHT22;7344;50.864;4.362;2023-11-21T01:44:39;10.50;99.90
14517;DHT22;7344;50.864;4.362;2023-11-21T01:47:08;10.50;99.90
14517;DHT22;7344;50.864;4.362;2023-11-21T01:49:35;10.60;99.90
14517;DHT22;7344;50.864;4.362;2023-11-21T01:52:02;10.60;99.90
14517;DHT22;7344;50.864;4.362;2023-11-21T01:54:29;10.60;99.90
14517;DHT22;7344;50.864;4.362;2023-11-21T01:56:59;10.50;99.90
14517;DHT22;7344;50.864;4.362;2023-11-21T01:59:37;10.50;99.90
14517;DHT22;7344;50.864;4.362;2023-11-21T02:02:06;10.60;99.90
14517;DHT22;7344;50.864;4.362;2023-11-21T02:04:36;10.70;99.90
14517;DHT22;7344;50.864;4.362;2023-11-21T02:07:02;10.60;99.90
14517;DHT22;7344;50.864;4.362;2023-11-21T02:09:31;10.50;99.90
14517;DHT22;7344;50.864;4.362;2023-11-21T02:11:58;10.50;99.90
14517;DHT22;7344;50.864;4.362;2023-11-21T02:14:25;10.50;99.90
14517;DHT22;7344;50.864;4.362;2023-11-21T02:16:52;10.50;99.90
14517;DHT22;7344;50.864;4.362;2023-11-21T02:19:19;10.50;99.90
14517;DHT22;7344;50.864;4.362;2023-11-21T02:21:49;10.50;99.90
14517;DHT22;7344;50.864;4.362;2023-11-21T02:24:15;10.50;99.90
14517;DHT22;7344;50.864;4.362;2023-11-21T02:26:43;10.50;99.90
14517;DHT22;7344;50.864;4.362;2023-11-21T02:29:08;10.60;99.90
14517;DHT22;7344;50.864;4.362;2023-11-21T02:31:37;10.60;99.90
14517;DHT22;7344;50.864;4.362;2023-11-21T02:34:11;10.70;99.90
14517;DHT22;7344;50.864;4.362;2023-11-21T02:36:38;10.60;99.90
14517;DHT22;7344;50.864;4.362;2023-11-21T02:39:04;10.60;99.90
14517;DHT22;7344;50.864;4.362;2023-11-21T02:41:30;10.70;99.90
14517;DHT22;7344;50.864;4.362;2023-11-21T02:43:55;10.70;99.90
14517;DHT22;7344;50.864;4.362;2023-11-21T02:46:21;10.60;99.90
14517;DHT22;7344;50.864;4.362;2023-11-21T02:48:47;10.50;99.90
14517;DHT22;7344;50.864;4.362;2023-11-21T02:51:13;10.50;99.90
14517;DHT22;7344;50.864;4.362;2023-11-21T02:53:38;10.40;99.90
14517;DHT22;7344;50.864;4.362;2023-11-21T02:56:05;10.40;99.90
14517;DHT22;7344;50.864;4.362;2023-11-21T02:58:30;10.30;99.90
14517;DHT22;7344;50.864;4.362;2023-11-21T03:00:56;10.30;99.90
14517;DHT22;7344;50.864;4.362;2023-11-21T03:03:21;10.20;99.90
14517;DHT22;7344;50.864;4.362;2023-11-21T03:05:49;10.20;99.90
14517;DHT22;7344;50.864;4.362;2023-11-21T03:08:15;10.20;99.90
14517;DHT22;7344;50.864;4.362;2023-11-21T03:10:41;10.30;99.90
14517;DHT22;7344;50.864;4.362;2023-11-21T03:13:06;10.30;99.90
14517;DHT22;7344;50.864;4.362;2023-11-21T03:15:32;10.30;99.90
14517;DHT22;7344;50.864;4.362;2023-11-21T03:17:58;10.30;99.90
14517;DHT22;7344;50.864;4.362;2023-11-21T03:20:24;10.40;99.90
14517;DHT22;7344;50.864;4.362;2023-11-21T03:22:49;10.40;99.90
14517;DHT22;7344;50.864;4.362;2023-11-21T03:25:15;10.60;99.90
14517;DHT22;7344;50.864;4.362;2023-11-21T03:27:42;10.60;99.90
14517;DHT22;7344;50.864;4.362;2023-11-21T03:30:10;10.50;99.90
14517;DHT22;7344;50.864;4.362;2023-11-21T03:32:36;10.50;99.90
14517;DHT22;7344;50.864;4.362;2023-11-21T03:35:02;10.50;99.90
14517;DHT22;7344;50.864;4.362;2023-11-21T03:37:29;10.60;99.90
14517;DHT22;7344;50.864;4.362;2023-11-21T03:39:55;10.70;99.90
14517;DHT22;7344;50.864;4.362;2023-11-21T03:42:21;10.70;99.90
14517;DHT22;7344;50.864;4.362;2023-11-21T03:44:47;10.60;99.90
14517;DHT22;7344;50.864;4.362;2023-11-21T03:47:12;10.60;99.90
14517;DHT22;7344;50.864;4.362;2023-11-21T03:49:38;10.60;99.90
14517;DHT22;7344;50.864;4.362;2023-11-21T03:52:04;10.80;99.90
14517;DHT22;7344;50.864;4.362;2023-11-21T03:54:30;10.80;99.90
14517;DHT22;7344;50.864;4.362;2023-11-21T03:56:56;10.70;99.90
14517;DHT22;7344;50.864;4.362;2023-11-21T03:59:21;10.70;99.90
14517;DHT22;7344;50.864;4.362;2023-11-21T04:01:50;10.70;99.90
14517;DHT22;7344;50.864;4.362;2023-11-21T04:04:15;10.70;99.90
14517;DHT22;7344;50.864;4.362;2023-11-21T04:06:41;10.70;99.90
14517;DHT22;7344;50.864;4.362;2023-11-21T04:09:07;10.80;99.90
14517;DHT22;7344;50.864;4.362;2023-11-21T04:11:32;10.90;99.90
14517;DHT22;7344;50.864;4.362;2023-11-21T04:13:59;10.70;99.90
14517;DHT22;7344;50.864;4.362;2023-11-21T04:16:24;10.70;99.90
14517;DHT22;7344;50.864;4.362;2023-11-21T04:18:50;10.60;99.90
14517;DHT22;7344;50.864;4.362;2023-11-21T04:21:15;10.50;99.90
14517;DHT22;7344;50.864;4.362;2023-11-21T04:23:42;10.40;99.90
14517;DHT22;7344;50.864;4.362;2023-11-21T04:26:08;10.50;99.90
14517;DHT22;7344;50.864;4.362;2023-11-21T04:28:33;10.60;99.90
14517;DHT22;7344;50.864;4.362;2023-11-21T04:31:00;10.60;99.90
14517;DHT22;7344;50.864;4.362;2023-11-21T04:33:25;10.60;99.90
14517;DHT22;7344;50.864;4.362;2023-11-21T04:35:51;10.60;99.90
14517;DHT22;7344;50.864;4.362;2023-11-21T04:38:17;10.70;99.90
14517;DHT22;7344;50.864;4.362;2023-11-21T04:40:42;10.70;99.90
14517;DHT22;7344;50.864;4.362;2023-11-21T04:43:08;10.70;99.90
14517;DHT22;7344;50.864;4.362;2023-11-21T04:45:34;10.70;99.90
14517;DHT22;7344;50.864;4.362;2023-11-21T04:47:59;10.80;99.90
14517;DHT22;7344;50.864;4.362;2023-11-21T04:50:25;10.80;99.90
14517;DHT22;7344;50.864;4.362;2023-11-21T04:52:54;10.80;99.90
14517;DHT22;7344;50.864;4.362;2023-11-21T04:55:19;10.80;99.90
14517;DHT22;7344;50.864;4.362;2023-11-21T04:57:45;10.90;99.90
14517;DHT22;7344;50.864;4.362;2023-11-21T05:00:12;10.80;99.90
14517;DHT22;7344;50.864;4.362;2023-11-21T05:02:39;10.70;99.90
14517;DHT22;7344;50.864;4.362;2023-11-21T05:05:05;10.70;99.90
14517;DHT22;7344;50.864;4.362;2023-11-21T05:07:31;10.70;99.90
14517;DHT22;7344;50.864;4.362;2023-11-21T05:09:57;10.80;99.90
14517;DHT22;7344;50.864;4.362;2023-11-21T05:12:24;10.90;99.90
14517;DHT22;7344;50.864;4.362;2023-11-21T05:14:50;10.90;99.90
14517;DHT22;7344;50.864;4.362;2023-11-21T05:17:15;10.90;99.90
14517;DHT22;7344;50.864;4.362;2023-11-21T05:19:41;10.80;99.90
14517;DHT22;7344;50.864;4.362;2023-11-21T05:22:08;10.80;99.90
14517;DHT22;7344;50.864;4.362;2023-11-21T05:24:34;10.90;99.90
14517;DHT22;7344;50.864;4.362;2023-11-21T05:27:00;10.90;99.90
14517;DHT22;7344;50.864;4.362;2023-11-21T05:29:26;11.10;99.90
14517;DHT22;7344;50.864;4.362;2023-11-21T05:31:52;11.00;99.90
14517;DHT22;7344;50.864;4.362;2023-11-21T05:34:18;10.90;99.90
14517;DHT22;7344;50.864;4.362;2023-11-21T05:36:44;10.80;99.90
14517;DHT22;7344;50.864;4.362;2023-11-21T05:39:13;10.70;99.90
14517;DHT22;7344;50.864;4.362;2023-11-21T05:41:39;10.70;99.90
14517;DHT22;7344;50.864;4.362;2023-11-21T05:44:05;10.70;99.90
14517;DHT22;7344;50.864;4.362;2023-11-21T05:46:30;10.70;99.90
14517;DHT22;7344;50.864;4.362;2023-11-21T05:48:56;10.70;99.90
14517;DHT22;7344;50.864;4.362;2023-11-21T05:51:22;10.80;99.90
14517;DHT22;7344;50.864;4.362;2023-11-21T05:53:47;10.90;99.90
14517;DHT22;7344;50.864;4.362;2023-11-21T05:56:13;10.90;99.90
14517;DHT22;7344;50.864;4.362;2023-11-21T05:58:39;11.00;99.90
14517;DHT22;7344;50.864;4.362;2023-11-21T06:01:06;11.00;99.90
14517;DHT22;7344;50.864;4.362;2023-11-21T06:03:35;11.00;99.90
14517;DHT22;7344;50.864;4.362;2023-11-21T06:06:00;11.10;99.90
14517;DHT22;7344;50.864;4.362;2023-11-21T06:08:26;11.20;99.90
14517;DHT22;7344;50.864;4.362;2023-11-21T06:10:52;11.10;99.90
14517;DHT22;7344;50.864;4.362;2023-11-21T06:13:17;11.10;99.90
14517;DHT22;7344;50.864;4.362;2023-11-21T06:15:49;11.20;99.90
14517;DHT22;7344;50.864;4.362;2023-11-21T06:18:15;11.10;99.90
14517;DHT22;7344;50.864;4.362;2023-11-21T06:20:41;11.20;99.90
14517;DHT22;7344;50.864;4.362;2023-11-21T06:23:06;11.20;99.90
14517;DHT22;7344;50.864;4.362;2023-11-21T06:25:32;11.30;99.90
14517;DHT22;7344;50.864;4.362;2023-11-21T06:28:02;11.30;99.90
14517;DHT22;7344;50.864;4.362;2023-11-21T06:30:28;11.10;99.90
14517;DHT22;7344;50.864;4.362;2023-11-21T06:32:54;11.10;99.90
14517;DHT22;7344;50.864;4.362;2023-11-21T06:35:21;11.20;99.90
14517;DHT22;7344;50.864;4.362;2023-11-21T06:37:47;11.10;99.90
14517;DHT22;7344;50.864;4.362;2023-11-21T06:40:13;11.20;99.90
14517;DHT22;7344;50.864;4.362;2023-11-21T06:42:44;11.20;99.90
14517;DHT22;7344;50.864;4.362;2023-11-21T06:45:10;11.30;99.90
14517;DHT22;7344;50.864;4.362;2023-11-21T06:47:36;11.20;99.90
14517;DHT22;7344;50.864;4.362;2023-11-21T06:50:02;11.20;99.90
14517;DHT22;7344;50.864;4.362;2023-11-21T06:52:27;11.20;99.90
14517;DHT22;7344;50.864;4.362;2023-11-21T06:54:53;11.30;99.90
14517;DHT22;7344;50.864;4.362;2023-11-21T06:57:18;11.30;99.90
14517;DHT22;7344;50.864;4.362;2023-11-21T06:59:44;11.40;99.90
14517;DHT22;7344;50.864;4.362;2023-11-21T07:02:10;11.50;99.90
14517;DHT22;7344;50.864;4.362;2023-11-21T07:04:36;11.40;99.90
14517;DHT22;7344;50.864;4.362;2023-11-21T07:07:06;11.50;99.90
14517;DHT22;7344;50.864;4.362;2023-11-21T07:09:32;11.50;99.90
14517;DHT22;7344;50.864;4.362;2023-11-21T07:11:58;11.50;99.90
14517;DHT22;7344;50.864;4.362;2023-11-21T07:14:23;11.50;99.90
14517;DHT22;7344;50.864;4.362;2023-11-21T07:16:49;11.50;99.90
14517;DHT22;7344;50.864;4.362;2023-11-21T07:19:15;11.40;99.90
14517;DHT22;7344;50.864;4.362;2023-11-21T07:21:40;11.50;99.90
14517;DHT22;7344;50.864;4.362;2023-11-21T07:24:07;11.50;99.90
14517;DHT22;7344;50.864;4.362;2023-11-21T07:26:34;11.40;99.90
14517;DHT22;7344;50.864;4.362;2023-11-21T07:29:02;11.50;99.90
14517;DHT22;7344;50.864;4.362;2023-11-21T07:31:29;11.50;99.90
14517;DHT22;7344;50.864;4.362;2023-11-21T07:33:54;11.40;99.90
14517;DHT22;7344;50.864;4.362;2023-11-21T07:36:23;11.10;99.90
14517;DHT22;7344;50.864;4.362;2023-11-21T07:38:49;11.20;99.90
14517;DHT22;7344;50.864;4.362;2023-11-21T07:41:16;11.30;99.90
14517;DHT22;7344;50.864;4.362;2023-11-21T07:43:43;11.40;99.90
14517;DHT22;7344;50.864;4.362;2023-11-21T07:46:09;11.50;99.90
14517;DHT22;7344;50.864;4.362;2023-11-21T07:48:35;11.50;99.90
14517;DHT22;7344;50.864;4.362;2023-11-21T07:51:03;11.50;99.90
14517;DHT22;7344;50.864;4.362;2023-11-21T07:53:29;11.60;99.90
14517;DHT22;7344;50.864;4.362;2023-11-21T07:56:05;11.60;99.90
14517;DHT22;7344;50.864;4.362;2023-11-21T07:58:31;11.80;99.90
14517;DHT22;7344;50.864;4.362;2023-11-21T08:00:59;11.80;99.90
14517;DHT22;7344;50.864;4.362;2023-11-21T08:03:25;11.80;99.90
14517;DHT22;7344;50.864;4.362;2023-11-21T08:05:52;11.70;99.90
14517;DHT22;7344;50.864;4.362;2023-11-21T08:08:18;11.60;99.90
14517;DHT22;7344;50.864;4.362;2023-11-21T08:10:44;11.60;99.90
14517;DHT22;7344;50.864;4.362;2023-11-21T08:13:25;11.70;99.90
14517;DHT22;7344;50.864;4.362;2023-11-21T08:15:53;11.70;99.90
14517;DHT22;7344;50.864;4.362;2023-11-21T08:18:19;11.80;99.90
14517;DHT22;7344;50.864;4.362;2023-11-21T08:20:44;11.90;99.90
14517;DHT22;7344;50.864;4.362;2023-11-21T08:23:14;11.90;99.90
14517;DHT22;7344;50.864;4.362;2023-11-21T08:25:41;11.90;99.90
14517;DHT22;7344;50.864;4.362;2023-11-21T08:28:07;11.90;99.90
14517;DHT22;7344;50.864;4.362;2023-11-21T08:30:33;11.80;99.90
14517;DHT22;7344;50.864;4.362;2023-11-21T08:33:00;12.00;99.90
14517;DHT22;7344;50.864;4.362;2023-11-21T08:35:25;12.10;99.90
14517;DHT22;7344;50.864;4.362;2023-11-21T08:37:52;12.00;99.90
14517;DHT22;7344;50.864;4.362;2023-11-21T08:40:20;12.10;99.90
14517;DHT22;7344;50.864;4.362;2023-11-21T08:42:47;12.00;99.90
14517;DHT22;7344;50.864;4.362;2023-11-21T08:45:14;12.00;99.90
14517;DHT22;7344;50.864;4.362;2023-11-21T08:47:39;12.00;99.90
14517;DHT22;7344;50.864;4.362;2023-11-21T08:50:07;12.00;99.90
14517;DHT22;7344;50.864;4.362;2023-11-21T08:52:33;12.10;99.90
14517;DHT22;7344;50.864;4.362;2023-11-21T08:54:59;12.10;99.90
14517;DHT22;7344;50.864;4.362;2023-11-21T08:57:28;12.10;99.90
14517;DHT22;7344;50.864;4.362;2023-11-21T08:59:54;12.20;99.90
14517;DHT22;7344;50.864;4.362;2023-11-21T09:02:26;12.10;99.90
14517;DHT22;7344;50.864;4.362;2023-11-21T09:04:52;12.20;99.90
14517;DHT22;7344;50.864;4.362;2023-11-21T09:07:21;12.30;99.90
14517;DHT22;7344;50.864;4.362;2023-11-21T09:09:47;12.30;99.90
14517;DHT22;7344;50.864;4.362;2023-11-21T09:12:13;12.20;99.90
14517;DHT22;7344;50.864;4.362;2023-11-21T09:14:39;12.20;99.90
14517;DHT22;7344;50.864;4.362;2023-11-21T09:17:05;12.30;99.90
14517;DHT22;7344;50.864;4.362;2023-11-21T09:19:37;12.40;99.90
14517;DHT22;7344;50.864;4.362;2023-11-21T09:22:03;12.60;99.90
14517;DHT22;7344;50.864;4.362;2023-11-21T09:24:33;12.50;99.90
14517;DHT22;7344;50.864;4.362;2023-11-21T09:26:59;12.50;99.90
14517;DHT22;7344;50.864;4.362;2023-11-21T09:29:28;12.50;99.90
14517;DHT22;7344;50.864;4.362;2023-11-21T09:31:54;12.60;99.90
14517;DHT22;7344;50.864;4.362;2023-11-21T09:34:21;12.50;99.90
14517;DHT22;7344;50.864;4.362;2023-11-21T09:36:47;12.50;99.90
14517;DHT22;7344;50.864;4.362;2023-11-21T09:39:13;12.40;99.90
14517;DHT22;7344;50.864;4.362;2023-11-21T09:41:46;12.40;99.90
14517;DHT22;7344;50.864;4.362;2023-11-21T09:44:22;12.50;99.90
14517;DHT22;7344;50.864;4.362;2023-11-21T09:46:49;12.50;99.90
14517;DHT22;7344;50.864;4.362;2023-11-21T09:49:18;12.70;99.90
14517;DHT22;7344;50.864;4.362;2023-11-21T09:51:45;12.80;99.90
14517;DHT22;7344;50.864;4.362;2023-11-21T09:54:13;12.70;99.90
14517;DHT22;7344;50.864;4.362;2023-11-21T09:56:41;12.80;99.90
14517;DHT22;7344;50.864;4.362;2023-11-21T09:59:12;12.80;99.90
14517;DHT22;7344;50.864;4.362;2023-11-21T10:01:38;12.90;99.90
14517;DHT22;7344;50.864;4.362;2023-11-21T10:04:06;12.80;99.90
14517;DHT22;7344;50.864;4.362;2023-11-21T10:06:41;12.70;99.90
14517;DHT22;7344;50.864;4.362;2023-11-21T10:09:12;12.60;99.90
14517;DHT22;7344;50.864;4.362;2023-11-21T10:11:42;12.40;99.90
14517;DHT22;7344;50.864;4.362;2023-11-21T10:14:11;12.40;99.90
14517;DHT22;7344;50.864;4.362;2023-11-21T10:16:41;12.30;99.90
14517;DHT22;7344;50.864;4.362;2023-11-21T10:19:10;12.30;99.90
14517;DHT22;7344;50.864;4.362;2023-11-21T10:21:38;12.40;99.90
14517;DHT22;7344;50.864;4.362;2023-11-21T10:24:04;12.50;99.90
14517;DHT22;7344;50.864;4.362;2023-11-21T10:26:32;12.50;99.90
14517;DHT22;7344;50.864;4.362;2023-11-21T10:29:00;12.60;99.90
14517;DHT22;7344;50.864;4.362;2023-11-21T10:31:30;12.80;99.90
14517;DHT22;7344;50.864;4.362;2023-11-21T10:34:14;12.90;99.90
14517;DHT22;7344;50.864;4.362;2023-11-21T10:36:40;13.10;99.90
14517;DHT22;7344;50.864;4.362;2023-11-21T10:39:06;13.40;99.90
14517;DHT22;7344;50.864;4.362;2023-11-21T10:41:32;13.50;99.90
14517;DHT22;7344;50.864;4.362;2023-11-21T10:43:58;13.60;99.90
14517;DHT22;7344;50.864;4.362;2023-11-21T10:46:24;13.70;99.90
14517;DHT22;7344;50.864;4.362;2023-11-21T10:48:54;13.90;99.90
14517;DHT22;7344;50.864;4.362;2023-11-21T10:51:21;13.90;99.90
14517;DHT22;7344;50.864;4.362;2023-11-21T10:53:47;13.90;99.90
14517;DHT22;7344;50.864;4.362;2023-11-21T10:56:18;14.00;99.90
14517;DHT22;7344;50.864;4.362;2023-11-21T10:58:45;14.10;99.90
14517;DHT22;7344;50.864;4.362;2023-11-21T11:01:11;13.90;99.90
14517;DHT22;7344;50.864;4.362;2023-11-21T11:03:39;14.00;99.90
14517;DHT22;7344;50.864;4.362;2023-11-21T11:06:07;14.20;99.90
14517;DHT22;7344;50.864;4.362;2023-11-21T11:08:37;14.40;99.90
14517;DHT22;7344;50.864;4.362;2023-11-21T11:11:07;14.40;99.90
14517;DHT22;7344;50.864;4.362;2023-11-21T11:13:33;14.40;99.50
14517;DHT22;7344;50.864;4.362;2023-11-21T11:16:00;14.30;99.90
14517;DHT22;7344;50.864;4.362;2023-11-21T11:18:30;14.30;99.90
14517;DHT22;7344;50.864;4.362;2023-11-21T11:21:11;14.30;99.90
14517;DHT22;7344;50.864;4.362;2023-11-21T11:29:19;14.30;99.90
14517;DHT22;7344;50.864;4.362;2023-11-21T11:34:39;14.20;99.90
14517;DHT22;7344;50.864;4.362;2023-11-21T11:37:08;14.40;99.90
14517;DHT22;7344;50.864;4.362;2023-11-21T11:39:43;14.60;99.90
14517;DHT22;7344;50.864;4.362;2023-11-21T11:42:13;14.50;98.00
14517;DHT22;7344;50.864;4.362;2023-11-21T11:47:15;14.20;99.90
14517;DHT22;7344;50.864;4.362;2023-11-21T11:50:17;14.00;99.90
14517;DHT22;7344;50.864;4.362;2023-11-21T11:52:47;13.90;99.90
14517;DHT22;7344;50.864;4.362;2023-11-21T11:55:16;13.70;99.90
14517;DHT22;7344;50.864;4.362;2023-11-21T11:57:47;13.60;99.90
14517;DHT22;7344;50.864;4.362;2023-11-21T12:00:20;13.50;99.90
14517;DHT22;7344;50.864;4.362;2023-11-21T12:02:51;13.50;99.90
14517;DHT22;7344;50.864;4.362;2023-11-21T12:05:21;13.50;99.90
14517;DHT22;7344;50.864;4.362;2023-11-21T12:07:52;13.40;99.90
14517;DHT22;7344;50.864;4.362;2023-11-21T12:10:22;13.50;99.90
14517;DHT22;7344;50.864;4.362;2023-11-21T12:12:52;13.40;99.90
14517;DHT22;7344;50.864;4.362;2023-11-21T12:15:18;13.40;99.90
14517;DHT22;7344;50.864;4.362;2023-11-21T12:17:45;13.30;99.90
14517;DHT22;7344;50.864;4.362;2023-11-21T12:20:12;13.40;99.90
14517;DHT22;7344;50.864;4.362;2023-11-21T12:22:53;13.40;99.90
14517;DHT22;7344;50.864;4.362;2023-11-21T12:25:29;13.20;99.90
14517;DHT22;7344;50.864;4.362;2023-11-21T12:27:58;13.30;99.90
14517;DHT22;7344;50.864;4.362;2023-11-21T12:30:27;13.30;99.90
14517;DHT22;7344;50.864;4.362;2023-11-21T12:32:55;13.50;99.90
14517;DHT22;7344;50.864;4.362;2023-11-21T12:35:26;13.50;99.90
14517;DHT22;7344;50.864;4.362;2023-11-21T12:37:53;13.50;99.90
14517;DHT22;7344;50.864;4.362;2023-11-21T12:40:20;13.50;99.90
14517;DHT22;7344;50.864;4.362;2023-11-21T12:42:50;13.60;99.90
14517;DHT22;7344;50.864;4.362;2023-11-21T12:47:47;13.50;99.90
14517;DHT22;7344;50.864;4.362;2023-11-21T12:50:20;13.60;99.90
14517;DHT22;7344;50.864;4.362;2023-11-21T12:52:52;13.60;99.90
14517;DHT22;7344;50.864;4.362;2023-11-21T12:55:22;13.50;99.90
14517;DHT22;7344;50.864;4.362;2023-11-21T12:57:49;13.60;99.90
14517;DHT22;7344;50.864;4.362;2023-11-21T13:00:18;13.60;99.90
14517;DHT22;7344;50.864;4.362;2023-11-21T13:02:53;13.50;99.90
14517;DHT22;7344;50.864;4.362;2023-11-21T13:08:02;13.40;99.90
14517;DHT22;7344;50.864;4.362;2023-11-21T13:10:31;13.30;99.90
14517;DHT22;7344;50.864;4.362;2023-11-21T13:13:01;13.30;99.90
14517;DHT22;7344;50.864;4.362;2023-11-21T13:15:31;13.40;99.90
14517;DHT22;7344;50.864;4.362;2023-11-21T13:17:58;13.40;99.90
14517;DHT22;7344;50.864;4.362;2023-11-21T13:20:24;13.30;99.90
14517;DHT22;7344;50.864;4.362;2023-11-21T13:22:51;13.30;99.90
14517;DHT22;7344;50.864;4.362;2023-11-21T13:25:21;13.10;99.90
14517;DHT22;7344;50.864;4.362;2023-11-21T13:27:46;13.10;99.90
14517;DHT22;7344;50.864;4.362;2023-11-21T13:30:15;13.10;99.90
14517;DHT22;7344;50.864;4.362;2023-11-21T13:32:45;13.10;99.90
14517;DHT22;7344;50.864;4.362;2023-11-21T13:35:17;13.10;99.90
14517;DHT22;7344;50.864;4.362;2023-11-21T13:38:08;13.10;99.90
14517;DHT22;7344;50.864;4.362;2023-11-21T13:40:35;13.20;99.90
14517;DHT22;7344;50.864;4.362;2023-11-21T13:43:08;13.30;99.90
14517;DHT22;7344;50.864;4.362;2023-11-21T13:45:36;13.30;99.90
14517;DHT22;7344;50.864;4.362;2023-11-21T13:48:02;13.20;99.90
14517;DHT22;7344;50.864;4.362;2023-11-21T13:50:28;13.00;99.90
14517;DHT22;7344;50.864;4.362;2023-11-21T13:53:03;13.00;99.90
14517;DHT22;7344;50.864;4.362;2023-11-21T13:55:36;13.00;99.90
14517;DHT22;7344;50.864;4.362;2023-11-21T13:58:02;13.00;99.90
14517;DHT22;7344;50.864;4.362;2023-11-21T14:00:29;12.90;99.90
14517;DHT22;7344;50.864;4.362;2023-11-21T14:03:07;12.80;99.90
14517;DHT22;7344;50.864;4.362;2023-11-21T14:05:43;12.70;99.90
14517;DHT22;7344;50.864;4.362;2023-11-21T14:08:10;12.60;99.90
14517;DHT22;7344;50.864;4.362;2023-11-21T14:10:37;12.50;99.90
14517;DHT22;7344;50.864;4.362;2023-11-21T14:13:09;12.30;99.90
14517;DHT22;7344;50.864;4.362;2023-11-21T14:15:39;12.20;99.90
14517;DHT22;7344;50.864;4.362;2023-11-21T14:18:07;12.20;99.90
14517;DHT22;7344;50.864;4.362;2023-11-21T14:20:36;12.00;99.90
14517;DHT22;7344;50.864;4.362;2023-11-21T14:23:03;12.00;99.90
14517;DHT22;7344;50.864;4.362;2023-11-21T14:25:31;12.00;99.90
14517;DHT22;7344;50.864;4.362;2023-11-21T14:27:57;12.10;99.90
14517;DHT22;7344;50.864;4.362;2023-11-21T14:30:23;12.10;99.90
14517;DHT22;7344;50.864;4.362;2023-11-21T14:32:49;12.10;99.90
14517;DHT22;7344;50.864;4.362;2023-11-21T14:35:16;12.10;99.90
14517;DHT22;7344;50.864;4.362;2023-11-21T14:37:42;12.10;99.90
14517;DHT22;7344;50.864;4.362;2023-11-21T14:40:09;12.10;99.90
14517;DHT22;7344;50.864;4.362;2023-11-21T14:42:35;12.10;99.90
14517;DHT22;7344;50.864;4.362;2023-11-21T14:45:04;12.10;99.90
14517;DHT22;7344;50.864;4.362;2023-11-21T14:47:32;12.20;99.90
14517;DHT22;7344;50.864;4.362;2023-11-21T14:50:00;12.20;99.90
14517;DHT22;7344;50.864;4.362;2023-11-21T14:52:39;12.30;99.90
14517;DHT22;7344;50.864;4.362;2023-11-21T14:55:19;12.20;99.90
14517;DHT22;7344;50.864;4.362;2023-11-21T14:57:57;12.10;99.90
14517;DHT22;7344;50.864;4.362;2023-11-21T15:00:27;12.20;99.90
14517;DHT22;7344;50.864;4.362;2023-11-21T15:02:59;12.20;99.90
14517;DHT22;7344;50.864;4.362;2023-11-21T15:05:24;12.30;99.90
14517;DHT22;7344;50.864;4.362;2023-11-21T15:07:53;12.20;99.90
14517;DHT22;7344;50.864;4.362;2023-11-21T15:10:22;12.20;99.90
14517;DHT22;7344;50.864;4.362;2023-11-21T15:12:54;12.30;99.90
14517;DHT22;7344;50.864;4.362;2023-11-21T15:15:20;12.40;99.90
14517;DHT22;7344;50.864;4.362;2023-11-21T15:17:46;12.30;99.90
14517;DHT22;7344;50.864;4.362;2023-11-21T15:20:13;12.30;99.90
14517;DHT22;7344;50.864;4.362;2023-11-21T15:22:44;12.20;99.90
14517;DHT22;7344;50.864;4.362;2023-11-21T15:25:10;12.10;99.90
14517;DHT22;7344;50.864;4.362;2023-11-21T15:27:36;12.10;99.90
14517;DHT22;7344;50.864;4.362;2023-11-21T15:30:02;12.10;99.90
14517;DHT22;7344;50.864;4.362;2023-11-21T15:32:29;12.00;99.90
14517;DHT22;7344;50.864;4.362;2023-11-21T15:34:54;12.10;99.90
14517;DHT22;7344;50.864;4.362;2023-11-21T15:37:20;12.10;99.90
14517;DHT22;7344;50.864;4.362;2023-11-21T15:39:46;12.10;99.90
14517;DHT22;7344;50.864;4.362;2023-11-21T15:42:12;12.00;99.90
14517;DHT22;7344;50.864;4.362;2023-11-21T15:44:38;12.10;99.90
14517;DHT22;7344;50.864;4.362;2023-11-21T15:47:04;12.00;99.90
14517;DHT22;7344;50.864;4.362;2023-11-21T15:49:31;11.90;99.90
14517;DHT22;7344;50.864;4.362;2023-11-21T15:52:00;11.90;99.90
14517;DHT22;7344;50.864;4.362;2023-11-21T15:54:26;11.80;99.90
14517;DHT22;7344;50.864;4.362;2023-11-21T15:56:53;11.70;99.90
14517;DHT22;7344;50.864;4.362;2023-11-21T15:59:24;11.70;99.90
14517;DHT22;7344;50.864;4.362;2023-11-21T16:01:55;11.60;99.90
14517;DHT22;7344;50.864;4.362;2023-11-21T16:04:20;11.60;99.90